sensor_id;sensor_type;location;lat;lon;timestamp;temperature;humidity
12520;DHT22;6325;49.540;8.364;2022-09-20T00:02:08;12.60;99.90
12520;DHT22;6325;49.540;8.364;2022-09-20T00:04:56;12.40;99.90
12520;DHT22;6325;49.540;8.364;2022-09-20T00:07:49;12.70;99.90
12520;DHT22;6325;49.540;8.364;2022-09-20T00:10:24;12.90;99.90
12520;DHT22;6325;49.540;8.364;2022-09-20T00:13:38;12.60;99.90
12520;DHT22;6325;49.540;8.364;2022-09-20T00:16:39;12.70;99.90
12520;DHT22;6325;49.540;8.364;2022-09-20T00:19:20;12.60;99.90
12520;DHT22;6325;49.540;8.364;2022-09-20T00:25:09;13.30;99.90
12520;DHT22;6325;49.540;8.364;2022-09-20T00:26:38;13.00;99.90
12520;DHT22;6325;49.540;8.364;2022-09-20T01:34:36;12.70;99.90
12520;DHT22;6325;49.540;8.364;2022-09-20T02:01:25;12.50;99.90
12520;DHT22;6325;49.540;8.364;2022-09-20T02:08:01;12.80;99.90
12520;DHT22;6325;49.540;8.364;2022-09-20T02:56:40;12.30;99.90
12520;DHT22;6325;49.540;8.364;2022-09-20T04:05:26;11.70;99.90
12520;DHT22;6325;49.540;8.364;2022-09-20T04:09:04;11.30;99.90
12520;DHT22;6325;49.540;8.364;2022-09-20T04:12:21;11.10;99.90
12520;DHT22;6325;49.540;8.364;2022-09-20T04:22:39;11.20;99.90
12520;DHT22;6325;49.540;8.364;2022-09-20T04:25:41;11.10;99.90
12520;DHT22;6325;49.540;8.364;2022-09-20T04:28:20;11.30;99.90
12520;DHT22;6325;49.540;8.364;2022-09-20T04:34:30;10.60;99.90
12520;DHT22;6325;49.540;8.364;2022-09-20T04:38:00;10.50;99.90
12520;DHT22;6325;49.540;8.364;2022-09-20T04:47:37;11.20;99.90
12520;DHT22;6325;49.540;8.364;2022-09-20T04:56:44;10.70;99.90
12520;DHT22;6325;49.540;8.364;2022-09-20T04:59:28;10.90;99.90
12520;DHT22;6325;49.540;8.364;2022-09-20T05:15:34;11.00;99.90
12520;DHT22;6325;49.540;8.364;2022-09-20T05:22:22;10.50;99.90
12520;DHT22;6325;49.540;8.364;2022-09-20T05:28:32;11.50;99.90
12520;DHT22;6325;49.540;8.364;2022-09-20T05:38:29;11.10;99.90
12520;DHT22;6325;49.540;8.364;2022-09-20T05:41:24;11.10;99.90
12520;DHT22;6325;49.540;8.364;2022-09-20T05:44:05;11.50;99.90
12520;DHT22;6325;49.540;8.364;2022-09-20T05:46:49;11.40;99.90
12520;DHT22;6325;49.540;8.364;2022-09-20T05:49:33;11.40;99.90
12520;DHT22;6325;49.540;8.364;2022-09-20T05:52:18;11.60;99.90
12520;DHT22;6325;49.540;8.364;2022-09-20T05:55:14;11.40;99.90
12520;DHT22;6325;49.540;8.364;2022-09-20T05:57:58;11.50;99.90
12520;DHT22;6325;49.540;8.364;2022-09-20T06:00:33;11.00;99.90
12520;DHT22;6325;49.540;8.364;2022-09-20T06:03:16;11.20;99.90
12520;DHT22;6325;49.540;8.364;2022-09-20T06:05:54;11.60;99.90
12520;DHT22;6325;49.540;8.364;2022-09-20T06:08:38;11.60;99.90
12520;DHT22;6325;49.540;8.364;2022-09-20T06:11:27;11.30;99.90
12520;DHT22;6325;49.540;8.364;2022-09-20T06:14:13;11.70;99.90
12520;DHT22;6325;49.540;8.364;2022-09-20T06:16:46;11.90;99.90
12520;DHT22;6325;49.540;8.364;2022-09-20T06:19:21;11.90;99.90
12520;DHT22;6325;49.540;8.364;2022-09-20T06:21:53;12.30;99.90
12520;DHT22;6325;49.540;8.364;2022-09-20T06:24:34;11.80;99.90
12520;DHT22;6325;49.540;8.364;2022-09-20T06:27:09;12.00;99.90
12520;DHT22;6325;49.540;8.364;2022-09-20T06:29:39;12.20;99.90
12520;DHT22;6325;49.540;8.364;2022-09-20T06:32:14;12.30;99.90
12520;DHT22;6325;49.540;8.364;2022-09-20T06:34:44;12.40;99.90
12520;DHT22;6325;49.540;8.364;2022-09-20T06:37:28;12.40;99.90
12520;DHT22;6325;49.540;8.364;2022-09-20T06:40:33;12.40;99.90
12520;DHT22;6325;49.540;8.364;2022-09-20T06:43:20;12.50;99.90
12520;DHT22;6325;49.540;8.364;2022-09-20T06:45:53;12.40;99.90
12520;DHT22;6325;49.540;8.364;2022-09-20T06:51:38;12.90;99.90
12520;DHT22;6325;49.540;8.364;2022-09-20T06:54:17;12.60;99.90
12520;DHT22;6325;49.540;8.364;2022-09-20T06:56:52;12.70;99.90
12520;DHT22;6325;49.540;8.364;2022-09-20T06:59:38;12.90;99.90
12520;DHT22;6325;49.540;8.364;2022-09-20T07:02:22;13.10;99.90
12520;DHT22;6325;49.540;8.364;2022-09-20T07:05:40;12.90;99.90
12520;DHT22;6325;49.540;8.364;2022-09-20T07:08:19;13.20;99.90
12520;DHT22;6325;49.540;8.364;2022-09-20T07:11:08;13.00;99.90
12520;DHT22;6325;49.540;8.364;2022-09-20T07:14:32;12.50;99.90
12520;DHT22;6325;49.540;8.364;2022-09-20T07:23:44;13.50;99.90
12520;DHT22;6325;49.540;8.364;2022-09-20T07:26:21;13.30;99.90
12520;DHT22;6325;49.540;8.364;2022-09-20T07:29:31;12.80;99.90
12520;DHT22;6325;49.540;8.364;2022-09-20T07:32:13;13.40;99.90
12520;DHT22;6325;49.540;8.364;2022-09-20T07:34:54;13.10;99.90
12520;DHT22;6325;49.540;8.364;2022-09-20T07:37:37;13.20;99.90
12520;DHT22;6325;49.540;8.364;2022-09-20T07:40:23;13.30;99.90
12520;DHT22;6325;49.540;8.364;2022-09-20T07:43:11;13.40;99.90
12520;DHT22;6325;49.540;8.364;2022-09-20T07:45:54;13.30;99.90
12520;DHT22;6325;49.540;8.364;2022-09-20T07:52:00;13.30;99.90
12520;DHT22;6325;49.540;8.364;2022-09-20T07:54:41;13.70;99.90
12520;DHT22;6325;49.540;8.364;2022-09-20T07:57:33;14.30;99.90
12520;DHT22;6325;49.540;8.364;2022-09-20T08:00:29;13.90;99.90
12520;DHT22;6325;49.540;8.364;2022-09-20T08:03:03;14.00;99.90
12520;DHT22;6325;49.540;8.364;2022-09-20T08:05:30;14.30;99.90
12520;DHT22;6325;49.540;8.364;2022-09-20T08:07:57;14.10;99.90
12520;DHT22;6325;49.540;8.364;2022-09-20T08:10:25;13.90;99.90
12520;DHT22;6325;49.540;8.364;2022-09-20T08:12:53;13.80;99.90
12520;DHT22;6325;49.540;8.364;2022-09-20T08:15:20;14.40;99.90
12520;DHT22;6325;49.540;8.364;2022-09-20T08:17:47;14.10;99.90
12520;DHT22;6325;49.540;8.364;2022-09-20T08:20:13;14.70;99.90
12520;DHT22;6325;49.540;8.364;2022-09-20T08:22:41;14.10;99.90
12520;DHT22;6325;49.540;8.364;2022-09-20T08:25:09;14.50;99.90
12520;DHT22;6325;49.540;8.364;2022-09-20T08:27:35;14.70;99.90
12520;DHT22;6325;49.540;8.364;2022-09-20T08:30:05;14.60;99.90
12520;DHT22;6325;49.540;8.364;2022-09-20T08:32:32;14.70;99.90
12520;DHT22;6325;49.540;8.364;2022-09-20T08:34:59;14.50;99.90
12520;DHT22;6325;49.540;8.364;2022-09-20T08:37:26;15.10;99.90
12520;DHT22;6325;49.540;8.364;2022-09-20T08:39:52;14.60;99.90
12520;DHT22;6325;49.540;8.364;2022-09-20T08:42:23;14.80;99.90
12520;DHT22;6325;49.540;8.364;2022-09-20T08:44:55;14.80;99.90
12520;DHT22;6325;49.540;8.364;2022-09-20T08:47:27;14.90;99.90
12520;DHT22;6325;49.540;8.364;2022-09-20T08:49:56;14.90;99.90
12520;DHT22;6325;49.540;8.364;2022-09-20T08:52:27;14.90;99.90
12520;DHT22;6325;49.540;8.364;2022-09-20T08:54:56;14.50;99.90
12520;DHT22;6325;49.540;8.364;2022-09-20T08:57:27;15.50;99.90
12520;DHT22;6325;49.540;8.364;2022-09-20T08:59:57;15.20;99.90
12520;DHT22;6325;49.540;8.364;2022-09-20T09:02:29;15.20;99.90
12520;DHT22;6325;49.540;8.364;2022-09-20T09:04:56;15.20;99.90
12520;DHT22;6325;49.540;8.364;2022-09-20T09:07:24;15.40;99.90
12520;DHT22;6325;49.540;8.364;2022-09-20T09:09:53;15.40;99.90
12520;DHT22;6325;49.540;8.364;2022-09-20T09:12:23;15.50;99.90
12520;DHT22;6325;49.540;8.364;2022-09-20T09:14:51;15.40;99.90
12520;DHT22;6325;49.540;8.364;2022-09-20T09:17:21;16.10;99.90
12520;DHT22;6325;49.540;8.364;2022-09-20T09:19:52;15.60;99.90
12520;DHT22;6325;49.540;8.364;2022-09-20T09:22:23;15.80;99.90
12520;DHT22;6325;49.540;8.364;2022-09-20T09:25:07;15.60;99.90
12520;DHT22;6325;49.540;8.364;2022-09-20T09:27:34;15.50;99.90
12520;DHT22;6325;49.540;8.364;2022-09-20T09:30:01;14.90;99.90
12520;DHT22;6325;49.540;8.364;2022-09-20T09:32:30;14.90;99.90
12520;DHT22;6325;49.540;8.364;2022-09-20T09:35:22;15.30;99.90
12520;DHT22;6325;49.540;8.364;2022-09-20T09:37:53;15.50;99.90
12520;DHT22;6325;49.540;8.364;2022-09-20T09:40:20;15.40;99.90
12520;DHT22;6325;49.540;8.364;2022-09-20T09:42:48;15.30;99.90
12520;DHT22;6325;49.540;8.364;2022-09-20T09:45:30;15.80;99.90
12520;DHT22;6325;49.540;8.364;2022-09-20T09:47:59;15.30;99.90
12520;DHT22;6325;49.540;8.364;2022-09-20T09:50:30;15.60;99.90
12520;DHT22;6325;49.540;8.364;2022-09-20T09:53:04;15.10;99.90
12520;DHT22;6325;49.540;8.364;2022-09-20T09:58:37;16.00;99.90
12520;DHT22;6325;49.540;8.364;2022-09-20T10:01:19;16.70;99.90
12520;DHT22;6325;49.540;8.364;2022-09-20T10:03:57;16.40;99.90
12520;DHT22;6325;49.540;8.364;2022-09-20T10:06:30;16.30;99.90
12520;DHT22;6325;49.540;8.364;2022-09-20T10:09:20;16.50;99.90
12520;DHT22;6325;49.540;8.364;2022-09-20T10:12:02;16.40;99.90
12520;DHT22;6325;49.540;8.364;2022-09-20T10:14:50;16.00;99.90
12520;DHT22;6325;49.540;8.364;2022-09-20T10:17:29;16.40;99.90
12520;DHT22;6325;49.540;8.364;2022-09-20T10:20:06;16.60;99.90
12520;DHT22;6325;49.540;8.364;2022-09-20T10:22:43;16.50;99.90
12520;DHT22;6325;49.540;8.364;2022-09-20T10:25:21;16.60;99.90
12520;DHT22;6325;49.540;8.364;2022-09-20T10:28:04;16.30;99.90
12520;DHT22;6325;49.540;8.364;2022-09-20T10:30:41;16.20;99.90
12520;DHT22;6325;49.540;8.364;2022-09-20T10:33:17;16.10;99.90
12520;DHT22;6325;49.540;8.364;2022-09-20T10:36:15;16.00;99.90
12520;DHT22;6325;49.540;8.364;2022-09-20T10:38:53;16.20;99.90
12520;DHT22;6325;49.540;8.364;2022-09-20T10:41:36;16.10;99.90
12520;DHT22;6325;49.540;8.364;2022-09-20T10:44:35;16.60;99.90
12520;DHT22;6325;49.540;8.364;2022-09-20T10:47:11;16.80;99.90
12520;DHT22;6325;49.540;8.364;2022-09-20T10:49:41;16.70;99.90
12520;DHT22;6325;49.540;8.364;2022-09-20T10:55:35;16.90;99.90
12520;DHT22;6325;49.540;8.364;2022-09-20T10:58:32;16.60;99.90
12520;DHT22;6325;49.540;8.364;2022-09-20T11:01:08;16.70;99.90
12520;DHT22;6325;49.540;8.364;2022-09-20T11:03:54;16.70;99.90
12520;DHT22;6325;49.540;8.364;2022-09-20T11:06:41;15.90;99.90
12520;DHT22;6325;49.540;8.364;2022-09-20T11:09:17;16.10;99.90
12520;DHT22;6325;49.540;8.364;2022-09-20T11:11:49;16.10;99.90
12520;DHT22;6325;49.540;8.364;2022-09-20T11:14:21;16.40;99.90
12520;DHT22;6325;49.540;8.364;2022-09-20T11:16:55;16.30;99.90
12520;DHT22;6325;49.540;8.364;2022-09-20T11:19:28;16.00;99.90
12520;DHT22;6325;49.540;8.364;2022-09-20T11:22:06;16.20;99.90
12520;DHT22;6325;49.540;8.364;2022-09-20T11:24:37;16.70;99.90
12520;DHT22;6325;49.540;8.364;2022-09-20T11:27:13;16.30;99.90
12520;DHT22;6325;49.540;8.364;2022-09-20T11:29:46;16.20;99.90
12520;DHT22;6325;49.540;8.364;2022-09-20T11:32:21;16.40;99.90
12520;DHT22;6325;49.540;8.364;2022-09-20T11:34:52;16.50;99.90
12520;DHT22;6325;49.540;8.364;2022-09-20T11:37:24;16.70;99.90
12520;DHT22;6325;49.540;8.364;2022-09-20T11:40:00;16.30;99.90
12520;DHT22;6325;49.540;8.364;2022-09-20T11:42:30;16.80;99.90
12520;DHT22;6325;49.540;8.364;2022-09-20T11:44:59;17.50;99.90
12520;DHT22;6325;49.540;8.364;2022-09-20T11:47:29;16.90;99.90
12520;DHT22;6325;49.540;8.364;2022-09-20T11:50:30;16.70;99.90
12520;DHT22;6325;49.540;8.364;2022-09-20T11:53:13;17.30;99.90
12520;DHT22;6325;49.540;8.364;2022-09-20T11:55:47;16.80;99.90
12520;DHT22;6325;49.540;8.364;2022-09-20T11:58:19;16.90;99.90
12520;DHT22;6325;49.540;8.364;2022-09-20T12:00:48;16.60;99.90
12520;DHT22;6325;49.540;8.364;2022-09-20T12:03:34;16.50;99.90
12520;DHT22;6325;49.540;8.364;2022-09-20T12:06:03;16.30;99.90
12520;DHT22;6325;49.540;8.364;2022-09-20T12:08:33;16.10;99.90
12520;DHT22;6325;49.540;8.364;2022-09-20T12:11:04;16.10;99.90
12520;DHT22;6325;49.540;8.364;2022-09-20T12:13:34;15.90;99.90
12520;DHT22;6325;49.540;8.364;2022-09-20T12:16:04;16.10;99.90
12520;DHT22;6325;49.540;8.364;2022-09-20T12:18:48;15.80;99.90
12520;DHT22;6325;49.540;8.364;2022-09-20T12:21:25;15.70;99.90
12520;DHT22;6325;49.540;8.364;2022-09-20T12:26:52;15.60;99.90
12520;DHT22;6325;49.540;8.364;2022-09-20T12:32:53;15.40;99.90
12520;DHT22;6325;49.540;8.364;2022-09-20T12:41:47;15.40;99.90
12520;DHT22;6325;49.540;8.364;2022-09-20T12:44:25;15.50;99.90
12520;DHT22;6325;49.540;8.364;2022-09-20T12:46:54;15.80;99.90
12520;DHT22;6325;49.540;8.364;2022-09-20T12:49:36;15.80;99.90
12520;DHT22;6325;49.540;8.364;2022-09-20T12:52:27;16.00;99.90
12520;DHT22;6325;49.540;8.364;2022-09-20T12:55:32;16.00;99.90
12520;DHT22;6325;49.540;8.364;2022-09-20T12:58:05;16.00;99.90
12520;DHT22;6325;49.540;8.364;2022-09-20T13:00:39;16.00;99.90
12520;DHT22;6325;49.540;8.364;2022-09-20T13:03:20;16.00;99.90
12520;DHT22;6325;49.540;8.364;2022-09-20T13:08:55;16.10;99.90
12520;DHT22;6325;49.540;8.364;2022-09-20T13:11:29;15.70;99.90
12520;DHT22;6325;49.540;8.364;2022-09-20T13:13:58;16.20;99.90
12520;DHT22;6325;49.540;8.364;2022-09-20T13:16:30;16.70;99.90
12520;DHT22;6325;49.540;8.364;2022-09-20T13:19:02;16.30;99.90
12520;DHT22;6325;49.540;8.364;2022-09-20T13:21:34;16.30;99.90
12520;DHT22;6325;49.540;8.364;2022-09-20T13:24:02;16.20;99.90
12520;DHT22;6325;49.540;8.364;2022-09-20T13:26:34;16.10;99.90
12520;DHT22;6325;49.540;8.364;2022-09-20T13:29:06;16.10;99.90
12520;DHT22;6325;49.540;8.364;2022-09-20T13:31:34;16.10;99.90
12520;DHT22;6325;49.540;8.364;2022-09-20T13:34:28;15.90;99.90
12520;DHT22;6325;49.540;8.364;2022-09-20T13:36:57;15.70;99.90
12520;DHT22;6325;49.540;8.364;2022-09-20T13:39:29;15.70;99.90
12520;DHT22;6325;49.540;8.364;2022-09-20T13:42:03;15.40;99.90
12520;DHT22;6325;49.540;8.364;2022-09-20T13:44:31;15.50;99.90
12520;DHT22;6325;49.540;8.364;2022-09-20T13:46:59;14.90;99.90
12520;DHT22;6325;49.540;8.364;2022-09-20T13:49:30;15.30;99.90
12520;DHT22;6325;49.540;8.364;2022-09-20T13:51:59;15.10;99.90
12520;DHT22;6325;49.540;8.364;2022-09-20T13:54:37;14.70;99.90
12520;DHT22;6325;49.540;8.364;2022-09-20T13:57:16;14.60;99.90
12520;DHT22;6325;49.540;8.364;2022-09-20T13:59:45;15.10;99.90
12520;DHT22;6325;49.540;8.364;2022-09-20T14:02:20;15.20;99.90
12520;DHT22;6325;49.540;8.364;2022-09-20T14:04:48;15.40;99.90
12520;DHT22;6325;49.540;8.364;2022-09-20T14:07:26;15.20;99.90
12520;DHT22;6325;49.540;8.364;2022-09-20T14:09:54;15.20;99.90
12520;DHT22;6325;49.540;8.364;2022-09-20T14:12:23;15.50;99.90
12520;DHT22;6325;49.540;8.364;2022-09-20T14:14:51;15.30;99.90
12520;DHT22;6325;49.540;8.364;2022-09-20T14:17:21;15.50;99.90
12520;DHT22;6325;49.540;8.364;2022-09-20T14:19:51;15.70;99.90
12520;DHT22;6325;49.540;8.364;2022-09-20T14:22:22;15.90;99.90
12520;DHT22;6325;49.540;8.364;2022-09-20T14:24:58;15.90;99.90
12520;DHT22;6325;49.540;8.364;2022-09-20T14:27:26;15.80;99.90
12520;DHT22;6325;49.540;8.364;2022-09-20T14:29:55;15.50;99.90
12520;DHT22;6325;49.540;8.364;2022-09-20T14:32:35;16.30;99.90
12520;DHT22;6325;49.540;8.364;2022-09-20T14:35:06;15.90;99.90
12520;DHT22;6325;49.540;8.364;2022-09-20T14:37:41;16.00;99.90
12520;DHT22;6325;49.540;8.364;2022-09-20T14:40:18;15.70;99.90
12520;DHT22;6325;49.540;8.364;2022-09-20T14:42:47;16.10;99.90
12520;DHT22;6325;49.540;8.364;2022-09-20T14:45:23;16.10;99.90
12520;DHT22;6325;49.540;8.364;2022-09-20T14:47:54;16.60;99.90
12520;DHT22;6325;49.540;8.364;2022-09-20T14:50:24;16.20;99.90
12520;DHT22;6325;49.540;8.364;2022-09-20T14:53:24;16.00;99.90
12520;DHT22;6325;49.540;8.364;2022-09-20T14:56:00;16.50;99.90
12520;DHT22;6325;49.540;8.364;2022-09-20T14:58:33;16.30;99.90
12520;DHT22;6325;49.540;8.364;2022-09-20T15:01:22;16.50;99.90
12520;DHT22;6325;49.540;8.364;2022-09-20T15:03:50;16.90;99.90
12520;DHT22;6325;49.540;8.364;2022-09-20T15:06:21;16.30;99.90
12520;DHT22;6325;49.540;8.364;2022-09-20T15:08:54;16.00;99.90
12520;DHT22;6325;49.540;8.364;2022-09-20T15:11:22;16.40;99.90
12520;DHT22;6325;49.540;8.364;2022-09-20T15:14:00;16.20;99.90
12520;DHT22;6325;49.540;8.364;2022-09-20T15:16:27;16.30;99.90
12520;DHT22;6325;49.540;8.364;2022-09-20T15:18:58;16.30;99.90
12520;DHT22;6325;49.540;8.364;2022-09-20T15:21:30;16.30;99.90
12520;DHT22;6325;49.540;8.364;2022-09-20T15:24:00;16.30;99.90
12520;DHT22;6325;49.540;8.364;2022-09-20T15:26:27;16.00;99.90
12520;DHT22;6325;49.540;8.364;2022-09-20T15:29:17;16.10;99.90
12520;DHT22;6325;49.540;8.364;2022-09-20T15:31:47;15.90;99.90
12520;DHT22;6325;49.540;8.364;2022-09-20T15:34:17;16.30;99.90
12520;DHT22;6325;49.540;8.364;2022-09-20T15:36:44;16.00;99.90
12520;DHT22;6325;49.540;8.364;2022-09-20T15:39:12;16.20;99.90
12520;DHT22;6325;49.540;8.364;2022-09-20T15:41:40;16.90;99.90
12520;DHT22;6325;49.540;8.364;2022-09-20T15:44:09;16.00;99.90
12520;DHT22;6325;49.540;8.364;2022-09-20T15:46:36;16.50;99.90
12520;DHT22;6325;49.540;8.364;2022-09-20T15:49:04;16.30;99.90
12520;DHT22;6325;49.540;8.364;2022-09-20T15:51:33;16.40;99.90
12520;DHT22;6325;49.540;8.364;2022-09-20T15:54:02;16.20;99.90
12520;DHT22;6325;49.540;8.364;2022-09-20T15:56:33;16.70;99.90
12520;DHT22;6325;49.540;8.364;2022-09-20T15:59:01;16.20;99.90
12520;DHT22;6325;49.540;8.364;2022-09-20T16:01:30;16.70;99.90
12520;DHT22;6325;49.540;8.364;2022-09-20T16:03:58;16.10;99.90
12520;DHT22;6325;49.540;8.364;2022-09-20T16:06:25;15.90;99.90
